sensor_id;sensor_type;location;lat;lon;timestamp;temperature;humidity
7494;DHT22;3788;49.902;8.590;2023-03-07T00:01:23;4.40;97.10
7494;DHT22;3788;49.902;8.590;2023-03-07T00:03:51;4.40;97.00
7494;DHT22;3788;49.902;8.590;2023-03-07T00:06:17;4.40;97.10
7494;DHT22;3788;49.902;8.590;2023-03-07T00:08:47;4.40;97.10
7494;DHT22;3788;49.902;8.590;2023-03-07T00:11:15;4.40;97.10
7494;DHT22;3788;49.902;8.590;2023-03-07T00:13:42;4.40;97.10
7494;DHT22;3788;49.902;8.590;2023-03-07T00:16:11;4.40;97.00
7494;DHT22;3788;49.902;8.590;2023-03-07T00:18:38;4.40;97.00
7494;DHT22;3788;49.902;8.590;2023-03-07T00:21:08;4.40;96.90
7494;DHT22;3788;49.902;8.590;2023-03-07T00:23:36;4.40;96.80
7494;DHT22;3788;49.902;8.590;2023-03-07T00:26:05;4.30;96.80
7494;DHT22;3788;49.902;8.590;2023-03-07T00:28:34;4.30;96.90
7494;DHT22;3788;49.902;8.590;2023-03-07T00:31:02;4.30;97.20
7494;DHT22;3788;49.902;8.590;2023-03-07T00:33:28;4.40;97.60
7494;DHT22;3788;49.902;8.590;2023-03-07T00:35:57;4.30;97.90
7494;DHT22;3788;49.902;8.590;2023-03-07T00:38:24;4.30;98.10
7494;DHT22;3788;49.902;8.590;2023-03-07T00:40:58;4.30;98.60
7494;DHT22;3788;49.902;8.590;2023-03-07T00:43:25;4.20;98.80
7494;DHT22;3788;49.902;8.590;2023-03-07T00:45:54;4.20;99.10
7494;DHT22;3788;49.902;8.590;2023-03-07T00:48:22;4.10;99.30
7494;DHT22;3788;49.902;8.590;2023-03-07T00:50:49;4.10;99.40
7494;DHT22;3788;49.902;8.590;2023-03-07T00:53:17;4.10;99.90
7494;DHT22;3788;49.902;8.590;2023-03-07T00:55:53;4.10;99.70
7494;DHT22;3788;49.902;8.590;2023-03-07T00:58:20;4.00;99.80
7494;DHT22;3788;49.902;8.590;2023-03-07T01:00:46;4.00;99.90
7494;DHT22;3788;49.902;8.590;2023-03-07T01:03:14;4.00;99.90
7494;DHT22;3788;49.902;8.590;2023-03-07T01:05:41;4.00;99.90
7494;DHT22;3788;49.902;8.590;2023-03-07T01:08:08;4.00;99.90
7494;DHT22;3788;49.902;8.590;2023-03-07T01:10:35;3.90;99.90
7494;DHT22;3788;49.902;8.590;2023-03-07T01:13:02;3.90;99.90
7494;DHT22;3788;49.902;8.590;2023-03-07T01:15:30;3.90;99.90
7494;DHT22;3788;49.902;8.590;2023-03-07T01:17:58;3.80;99.90
7494;DHT22;3788;49.902;8.590;2023-03-07T01:20:29;3.80;99.90
7494;DHT22;3788;49.902;8.590;2023-03-07T01:22:56;3.80;99.90
7494;DHT22;3788;49.902;8.590;2023-03-07T01:25:23;3.70;99.90
7494;DHT22;3788;49.902;8.590;2023-03-07T01:27:50;3.70;99.90
7494;DHT22;3788;49.902;8.590;2023-03-07T01:30:17;3.70;99.90
7494;DHT22;3788;49.902;8.590;2023-03-07T01:32:44;3.60;99.90
7494;DHT22;3788;49.902;8.590;2023-03-07T01:35:10;3.60;99.90
7494;DHT22;3788;49.902;8.590;2023-03-07T01:37:38;3.60;99.90
7494;DHT22;3788;49.902;8.590;2023-03-07T01:40:06;3.60;99.90
7494;DHT22;3788;49.902;8.590;2023-03-07T01:42:33;3.70;99.90
7494;DHT22;3788;49.902;8.590;2023-03-07T01:45:03;3.60;99.90
7494;DHT22;3788;49.902;8.590;2023-03-07T01:47:30;3.70;99.90
7494;DHT22;3788;49.902;8.590;2023-03-07T01:49:58;3.70;99.90
7494;DHT22;3788;49.902;8.590;2023-03-07T01:52:31;3.70;99.90
7494;DHT22;3788;49.902;8.590;2023-03-07T01:55:04;3.70;99.90
7494;DHT22;3788;49.902;8.590;2023-03-07T01:57:34;3.70;99.90
7494;DHT22;3788;49.902;8.590;2023-03-07T02:00:05;3.70;99.90
7494;DHT22;3788;49.902;8.590;2023-03-07T02:02:36;3.70;99.90
7494;DHT22;3788;49.902;8.590;2023-03-07T02:05:09;3.70;99.90
7494;DHT22;3788;49.902;8.590;2023-03-07T02:07:40;3.80;99.90
7494;DHT22;3788;49.902;8.590;2023-03-07T02:10:10;3.80;99.90
7494;DHT22;3788;49.902;8.590;2023-03-07T02:12:38;3.80;99.90
7494;DHT22;3788;49.902;8.590;2023-03-07T02:15:07;3.90;99.90
7494;DHT22;3788;49.902;8.590;2023-03-07T02:17:34;3.90;99.90
7494;DHT22;3788;49.902;8.590;2023-03-07T02:20:09;4.00;99.90
7494;DHT22;3788;49.902;8.590;2023-03-07T02:22:38;4.00;99.90
7494;DHT22;3788;49.902;8.590;2023-03-07T02:25:11;4.00;99.90
7494;DHT22;3788;49.902;8.590;2023-03-07T02:27:42;4.10;99.90
7494;DHT22;3788;49.902;8.590;2023-03-07T02:30:10;4.00;99.90
7494;DHT22;3788;49.902;8.590;2023-03-07T02:32:37;4.00;99.90
7494;DHT22;3788;49.902;8.590;2023-03-07T02:35:11;4.00;99.90
7494;DHT22;3788;49.902;8.590;2023-03-07T02:37:39;4.00;99.90
7494;DHT22;3788;49.902;8.590;2023-03-07T02:40:09;4.00;99.90
7494;DHT22;3788;49.902;8.590;2023-03-07T02:42:40;4.00;99.90
7494;DHT22;3788;49.902;8.590;2023-03-07T02:45:11;4.00;99.90
7494;DHT22;3788;49.902;8.590;2023-03-07T02:47:38;4.00;99.90
7494;DHT22;3788;49.902;8.590;2023-03-07T02:50:07;4.00;99.90
7494;DHT22;3788;49.902;8.590;2023-03-07T02:52:34;4.00;99.90
7494;DHT22;3788;49.902;8.590;2023-03-07T02:55:00;4.00;99.90
7494;DHT22;3788;49.902;8.590;2023-03-07T02:57:27;4.00;99.90
7494;DHT22;3788;49.902;8.590;2023-03-07T02:59:55;4.00;99.90
7494;DHT22;3788;49.902;8.590;2023-03-07T03:02:22;4.00;99.90
7494;DHT22;3788;49.902;8.590;2023-03-07T03:04:49;4.00;99.90
7494;DHT22;3788;49.902;8.590;2023-03-07T03:07:16;4.00;99.90
7494;DHT22;3788;49.902;8.590;2023-03-07T03:09:43;4.00;99.90
7494;DHT22;3788;49.902;8.590;2023-03-07T03:12:09;4.10;99.90
7494;DHT22;3788;49.902;8.590;2023-03-07T03:14:36;4.10;99.90
7494;DHT22;3788;49.902;8.590;2023-03-07T03:17:04;4.10;99.90
7494;DHT22;3788;49.902;8.590;2023-03-07T03:19:31;4.10;99.90
7494;DHT22;3788;49.902;8.590;2023-03-07T03:21:58;4.10;99.90
7494;DHT22;3788;49.902;8.590;2023-03-07T03:24:25;4.10;99.90
7494;DHT22;3788;49.902;8.590;2023-03-07T03:26:54;4.10;99.90
7494;DHT22;3788;49.902;8.590;2023-03-07T03:29:21;4.10;99.90
7494;DHT22;3788;49.902;8.590;2023-03-07T03:31:48;4.10;99.90
7494;DHT22;3788;49.902;8.590;2023-03-07T03:34:16;4.10;99.90
7494;DHT22;3788;49.902;8.590;2023-03-07T03:36:43;4.20;99.90
7494;DHT22;3788;49.902;8.590;2023-03-07T03:39:10;4.20;99.90
7494;DHT22;3788;49.902;8.590;2023-03-07T03:41:37;4.20;99.90
7494;DHT22;3788;49.902;8.590;2023-03-07T03:44:03;4.20;99.90
7494;DHT22;3788;49.902;8.590;2023-03-07T03:46:30;4.20;99.90
7494;DHT22;3788;49.902;8.590;2023-03-07T03:48:57;4.20;99.90
7494;DHT22;3788;49.902;8.590;2023-03-07T03:51:25;4.20;99.90
7494;DHT22;3788;49.902;8.590;2023-03-07T03:53:52;4.20;99.90
7494;DHT22;3788;49.902;8.590;2023-03-07T03:56:23;4.20;99.90
7494;DHT22;3788;49.902;8.590;2023-03-07T03:58:51;4.20;99.90
7494;DHT22;3788;49.902;8.590;2023-03-07T04:01:20;4.20;99.90
7494;DHT22;3788;49.902;8.590;2023-03-07T04:03:49;4.20;99.90
7494;DHT22;3788;49.902;8.590;2023-03-07T04:06:17;4.20;99.90
7494;DHT22;3788;49.902;8.590;2023-03-07T04:08:46;4.30;99.90
7494;DHT22;3788;49.902;8.590;2023-03-07T04:11:13;4.20;99.90
7494;DHT22;3788;49.902;8.590;2023-03-07T04:13:40;4.30;99.90
7494;DHT22;3788;49.902;8.590;2023-03-07T04:16:07;4.30;99.90
7494;DHT22;3788;49.902;8.590;2023-03-07T04:18:34;4.30;99.90
7494;DHT22;3788;49.902;8.590;2023-03-07T04:21:02;4.30;99.90
7494;DHT22;3788;49.902;8.590;2023-03-07T04:23:29;4.30;99.90
7494;DHT22;3788;49.902;8.590;2023-03-07T04:25:59;4.30;99.90
7494;DHT22;3788;49.902;8.590;2023-03-07T04:28:27;4.30;99.90
7494;DHT22;3788;49.902;8.590;2023-03-07T04:30:54;4.30;99.90
7494;DHT22;3788;49.902;8.590;2023-03-07T04:33:22;4.30;99.90
7494;DHT22;3788;49.902;8.590;2023-03-07T04:35:48;4.30;99.90
7494;DHT22;3788;49.902;8.590;2023-03-07T04:38:15;4.30;99.90
7494;DHT22;3788;49.902;8.590;2023-03-07T04:40:42;4.40;99.90
7494;DHT22;3788;49.902;8.590;2023-03-07T04:43:10;4.30;99.90
7494;DHT22;3788;49.902;8.590;2023-03-07T04:45:37;4.40;99.90
7494;DHT22;3788;49.902;8.590;2023-03-07T04:48:04;4.40;99.90
7494;DHT22;3788;49.902;8.590;2023-03-07T04:50:31;4.40;99.90
7494;DHT22;3788;49.902;8.590;2023-03-07T04:52:58;4.40;99.90
7494;DHT22;3788;49.902;8.590;2023-03-07T04:55:24;4.30;99.90
7494;DHT22;3788;49.902;8.590;2023-03-07T04:57:51;4.40;99.90
7494;DHT22;3788;49.902;8.590;2023-03-07T05:00:20;4.40;99.90
7494;DHT22;3788;49.902;8.590;2023-03-07T05:02:46;4.40;99.90
7494;DHT22;3788;49.902;8.590;2023-03-07T05:05:14;4.40;99.90
7494;DHT22;3788;49.902;8.590;2023-03-07T05:07:41;4.30;99.90
7494;DHT22;3788;49.902;8.590;2023-03-07T05:10:10;4.30;99.90
7494;DHT22;3788;49.902;8.590;2023-03-07T05:12:37;4.30;99.90
7494;DHT22;3788;49.902;8.590;2023-03-07T05:15:04;4.30;99.90
7494;DHT22;3788;49.902;8.590;2023-03-07T05:17:33;4.30;99.90
7494;DHT22;3788;49.902;8.590;2023-03-07T05:19:59;4.30;99.90
7494;DHT22;3788;49.902;8.590;2023-03-07T05:22:26;4.30;99.90
7494;DHT22;3788;49.902;8.590;2023-03-07T05:24:52;4.30;99.90
7494;DHT22;3788;49.902;8.590;2023-03-07T05:27:19;4.20;99.90
7494;DHT22;3788;49.902;8.590;2023-03-07T05:29:46;4.20;99.90
7494;DHT22;3788;49.902;8.590;2023-03-07T05:32:12;4.10;99.90
7494;DHT22;3788;49.902;8.590;2023-03-07T05:34:41;4.10;99.90
7494;DHT22;3788;49.902;8.590;2023-03-07T05:37:09;4.00;99.90
7494;DHT22;3788;49.902;8.590;2023-03-07T05:39:35;4.00;99.90
7494;DHT22;3788;49.902;8.590;2023-03-07T05:42:02;3.90;99.90
7494;DHT22;3788;49.902;8.590;2023-03-07T05:44:29;3.90;99.90
7494;DHT22;3788;49.902;8.590;2023-03-07T05:46:56;3.90;99.90
7494;DHT22;3788;49.902;8.590;2023-03-07T05:49:22;3.90;99.90
7494;DHT22;3788;49.902;8.590;2023-03-07T05:51:51;3.90;99.90
7494;DHT22;3788;49.902;8.590;2023-03-07T05:54:18;3.90;99.90
7494;DHT22;3788;49.902;8.590;2023-03-07T05:56:45;3.90;99.90
7494;DHT22;3788;49.902;8.590;2023-03-07T05:59:11;3.80;99.90
7494;DHT22;3788;49.902;8.590;2023-03-07T06:01:40;3.90;99.90
7494;DHT22;3788;49.902;8.590;2023-03-07T06:04:06;3.80;99.90
7494;DHT22;3788;49.902;8.590;2023-03-07T06:06:33;3.90;99.90
7494;DHT22;3788;49.902;8.590;2023-03-07T06:09:02;3.80;99.90
7494;DHT22;3788;49.902;8.590;2023-03-07T06:11:30;3.80;99.90
7494;DHT22;3788;49.902;8.590;2023-03-07T06:13:56;3.80;99.90
7494;DHT22;3788;49.902;8.590;2023-03-07T06:16:23;3.80;99.90
7494;DHT22;3788;49.902;8.590;2023-03-07T06:18:50;3.90;99.90
7494;DHT22;3788;49.902;8.590;2023-03-07T06:21:17;3.90;99.90
7494;DHT22;3788;49.902;8.590;2023-03-07T06:23:44;3.90;99.90
7494;DHT22;3788;49.902;8.590;2023-03-07T06:26:12;3.90;99.90
7494;DHT22;3788;49.902;8.590;2023-03-07T06:28:40;3.90;99.90
7494;DHT22;3788;49.902;8.590;2023-03-07T06:31:08;3.90;99.90
7494;DHT22;3788;49.902;8.590;2023-03-07T06:33:35;3.90;99.90
7494;DHT22;3788;49.902;8.590;2023-03-07T06:36:04;3.90;99.90
7494;DHT22;3788;49.902;8.590;2023-03-07T06:38:32;3.90;99.90
7494;DHT22;3788;49.902;8.590;2023-03-07T06:40:59;4.00;99.90
7494;DHT22;3788;49.902;8.590;2023-03-07T06:43:27;4.00;99.90
7494;DHT22;3788;49.902;8.590;2023-03-07T06:45:53;4.00;99.90
7494;DHT22;3788;49.902;8.590;2023-03-07T06:48:20;4.00;99.90
7494;DHT22;3788;49.902;8.590;2023-03-07T06:50:47;4.00;99.90
7494;DHT22;3788;49.902;8.590;2023-03-07T06:53:14;4.00;99.90
7494;DHT22;3788;49.902;8.590;2023-03-07T06:55:41;4.00;99.90
7494;DHT22;3788;49.902;8.590;2023-03-07T06:58:07;4.00;99.90
7494;DHT22;3788;49.902;8.590;2023-03-07T07:00:35;4.10;99.90
7494;DHT22;3788;49.902;8.590;2023-03-07T07:03:03;4.10;99.90
7494;DHT22;3788;49.902;8.590;2023-03-07T07:05:30;4.10;99.90
7494;DHT22;3788;49.902;8.590;2023-03-07T07:07:56;4.20;99.90
7494;DHT22;3788;49.902;8.590;2023-03-07T07:10:23;4.20;99.90
7494;DHT22;3788;49.902;8.590;2023-03-07T07:12:50;4.20;99.90
7494;DHT22;3788;49.902;8.590;2023-03-07T07:15:21;4.20;99.90
7494;DHT22;3788;49.902;8.590;2023-03-07T07:17:49;4.30;99.90
7494;DHT22;3788;49.902;8.590;2023-03-07T07:20:16;4.30;99.90
7494;DHT22;3788;49.902;8.590;2023-03-07T07:22:43;4.30;99.90
7494;DHT22;3788;49.902;8.590;2023-03-07T07:25:10;4.40;99.90
7494;DHT22;3788;49.902;8.590;2023-03-07T07:27:37;4.40;99.90
7494;DHT22;3788;49.902;8.590;2023-03-07T07:30:04;4.50;99.90
7494;DHT22;3788;49.902;8.590;2023-03-07T07:32:31;4.60;99.90
7494;DHT22;3788;49.902;8.590;2023-03-07T07:34:59;4.70;99.90
7494;DHT22;3788;49.902;8.590;2023-03-07T07:37:26;4.70;99.90
7494;DHT22;3788;49.902;8.590;2023-03-07T07:39:53;4.90;99.90
7494;DHT22;3788;49.902;8.590;2023-03-07T07:42:19;5.00;99.90
7494;DHT22;3788;49.902;8.590;2023-03-07T07:44:46;5.00;99.90
7494;DHT22;3788;49.902;8.590;2023-03-07T07:47:13;5.10;99.90
7494;DHT22;3788;49.902;8.590;2023-03-07T07:49:40;5.30;99.90
7494;DHT22;3788;49.902;8.590;2023-03-07T07:52:08;5.50;99.90
7494;DHT22;3788;49.902;8.590;2023-03-07T07:54:35;5.80;99.70
7494;DHT22;3788;49.902;8.590;2023-03-07T07:57:01;6.20;99.00
7494;DHT22;3788;49.902;8.590;2023-03-07T07:59:28;6.60;98.40
7494;DHT22;3788;49.902;8.590;2023-03-07T08:01:56;6.90;96.90
7494;DHT22;3788;49.902;8.590;2023-03-07T08:04:22;7.10;96.20
7494;DHT22;3788;49.902;8.590;2023-03-07T08:06:49;7.40;96.10
7494;DHT22;3788;49.902;8.590;2023-03-07T08:09:18;7.60;95.00
7494;DHT22;3788;49.902;8.590;2023-03-07T08:11:45;7.80;94.20
7494;DHT22;3788;49.902;8.590;2023-03-07T08:14:11;7.70;93.60
7494;DHT22;3788;49.902;8.590;2023-03-07T08:16:38;7.90;94.00
7494;DHT22;3788;49.902;8.590;2023-03-07T08:19:05;8.10;93.40
7494;DHT22;3788;49.902;8.590;2023-03-07T08:21:31;8.10;92.40
7494;DHT22;3788;49.902;8.590;2023-03-07T08:23:58;8.10;92.40
7494;DHT22;3788;49.902;8.590;2023-03-07T08:26:26;8.30;92.30
7494;DHT22;3788;49.902;8.590;2023-03-07T08:28:53;8.70;91.80
7494;DHT22;3788;49.902;8.590;2023-03-07T08:31:22;8.90;91.10
7494;DHT22;3788;49.902;8.590;2023-03-07T08:33:49;8.90;90.70
7494;DHT22;3788;49.902;8.590;2023-03-07T08:36:17;9.00;90.20
7494;DHT22;3788;49.902;8.590;2023-03-07T08:38:47;9.00;90.00
7494;DHT22;3788;49.902;8.590;2023-03-07T08:41:15;9.10;89.20
7494;DHT22;3788;49.902;8.590;2023-03-07T08:43:43;9.40;88.80
7494;DHT22;3788;49.902;8.590;2023-03-07T08:46:10;9.40;88.00
7494;DHT22;3788;49.902;8.590;2023-03-07T08:48:37;9.30;86.80
7494;DHT22;3788;49.902;8.590;2023-03-07T08:51:05;9.10;87.00
7494;DHT22;3788;49.902;8.590;2023-03-07T08:53:32;9.00;87.40
7494;DHT22;3788;49.902;8.590;2023-03-07T08:55:59;8.70;87.30
7494;DHT22;3788;49.902;8.590;2023-03-07T08:58:26;8.60;88.20
7494;DHT22;3788;49.902;8.590;2023-03-07T09:00:54;8.50;88.40
7494;DHT22;3788;49.902;8.590;2023-03-07T09:03:23;8.50;88.70
7494;DHT22;3788;49.902;8.590;2023-03-07T09:05:49;8.60;89.50
7494;DHT22;3788;49.902;8.590;2023-03-07T09:08:16;8.70;88.60
7494;DHT22;3788;49.902;8.590;2023-03-07T09:10:43;8.70;89.50
7494;DHT22;3788;49.902;8.590;2023-03-07T09:13:10;8.70;88.60
7494;DHT22;3788;49.902;8.590;2023-03-07T09:15:38;8.70;88.60
7494;DHT22;3788;49.902;8.590;2023-03-07T09:18:07;8.60;88.30
7494;DHT22;3788;49.902;8.590;2023-03-07T09:20:34;8.70;88.20
7494;DHT22;3788;49.902;8.590;2023-03-07T09:23:01;8.70;87.20
7494;DHT22;3788;49.902;8.590;2023-03-07T09:25:28;8.80;87.00
7494;DHT22;3788;49.902;8.590;2023-03-07T09:27:55;8.80;86.60
7494;DHT22;3788;49.902;8.590;2023-03-07T09:30:21;8.80;87.20
7494;DHT22;3788;49.902;8.590;2023-03-07T09:32:49;8.80;86.50
7494;DHT22;3788;49.902;8.590;2023-03-07T09:35:17;8.90;86.90
7494;DHT22;3788;49.902;8.590;2023-03-07T09:37:44;9.10;86.20
7494;DHT22;3788;49.902;8.590;2023-03-07T09:40:17;9.30;84.80
7494;DHT22;3788;49.902;8.590;2023-03-07T09:42:53;9.50;85.00
7494;DHT22;3788;49.902;8.590;2023-03-07T09:45:30;9.60;82.80
7494;DHT22;3788;49.902;8.590;2023-03-07T09:51:17;9.40;82.40
7494;DHT22;3788;49.902;8.590;2023-03-07T09:53:48;9.10;82.70
7494;DHT22;3788;49.902;8.590;2023-03-07T09:56:21;9.00;82.90
7494;DHT22;3788;49.902;8.590;2023-03-07T09:58:53;9.00;83.50
7494;DHT22;3788;49.902;8.590;2023-03-07T10:01:25;9.10;83.60
7494;DHT22;3788;49.902;8.590;2023-03-07T10:03:58;9.10;82.70
7494;DHT22;3788;49.902;8.590;2023-03-07T10:06:29;9.00;82.30
7494;DHT22;3788;49.902;8.590;2023-03-07T10:08:57;9.10;83.20
7494;DHT22;3788;49.902;8.590;2023-03-07T10:11:33;9.30;82.80
7494;DHT22;3788;49.902;8.590;2023-03-07T10:14:11;9.50;82.70
7494;DHT22;3788;49.902;8.590;2023-03-07T10:16:45;9.70;80.90
7494;DHT22;3788;49.902;8.590;2023-03-07T10:19:20;9.80;79.80
7494;DHT22;3788;49.902;8.590;2023-03-07T10:21:59;9.70;79.50
7494;DHT22;3788;49.902;8.590;2023-03-07T10:24:44;9.60;79.80
7494;DHT22;3788;49.902;8.590;2023-03-07T10:27:15;9.40;80.40
7494;DHT22;3788;49.902;8.590;2023-03-07T10:29:45;9.40;81.10
7494;DHT22;3788;49.902;8.590;2023-03-07T10:32:30;9.50;80.10
7494;DHT22;3788;49.902;8.590;2023-03-07T10:35:00;9.40;79.80
7494;DHT22;3788;49.902;8.590;2023-03-07T10:37:41;9.20;79.80
7494;DHT22;3788;49.902;8.590;2023-03-07T10:40:25;9.20;80.10
7494;DHT22;3788;49.902;8.590;2023-03-07T10:42:52;9.10;80.30
7494;DHT22;3788;49.902;8.590;2023-03-07T10:45:20;9.00;79.90
7494;DHT22;3788;49.902;8.590;2023-03-07T10:47:47;9.00;80.00
7494;DHT22;3788;49.902;8.590;2023-03-07T10:50:27;9.00;80.30
7494;DHT22;3788;49.902;8.590;2023-03-07T10:52:57;8.90;80.40
7494;DHT22;3788;49.902;8.590;2023-03-07T10:55:40;8.90;80.60
7494;DHT22;3788;49.902;8.590;2023-03-07T10:58:16;8.80;80.00
7494;DHT22;3788;49.902;8.590;2023-03-07T11:00:46;8.80;79.70
7494;DHT22;3788;49.902;8.590;2023-03-07T11:03:26;8.80;79.80
7494;DHT22;3788;49.902;8.590;2023-03-07T11:05:54;8.80;79.70
7494;DHT22;3788;49.902;8.590;2023-03-07T11:08:29;8.80;79.90
7494;DHT22;3788;49.902;8.590;2023-03-07T11:10:57;8.90;80.10
7494;DHT22;3788;49.902;8.590;2023-03-07T11:13:24;9.00;78.50
7494;DHT22;3788;49.902;8.590;2023-03-07T11:16:08;9.00;78.80
7494;DHT22;3788;49.902;8.590;2023-03-07T11:18:39;9.00;78.50
7494;DHT22;3788;49.902;8.590;2023-03-07T11:21:26;9.00;78.50
7494;DHT22;3788;49.902;8.590;2023-03-07T11:23:59;9.00;78.50
7494;DHT22;3788;49.902;8.590;2023-03-07T11:26:30;9.10;78.40
7494;DHT22;3788;49.902;8.590;2023-03-07T11:29:05;9.10;78.10
7494;DHT22;3788;49.902;8.590;2023-03-07T11:31:37;9.20;78.10
7494;DHT22;3788;49.902;8.590;2023-03-07T11:34:20;9.30;77.70
7494;DHT22;3788;49.902;8.590;2023-03-07T11:36:53;9.40;76.70
7494;DHT22;3788;49.902;8.590;2023-03-07T11:39:28;9.40;76.70
7494;DHT22;3788;49.902;8.590;2023-03-07T11:41:59;9.40;76.40
7494;DHT22;3788;49.902;8.590;2023-03-07T11:44:33;9.50;77.20
7494;DHT22;3788;49.902;8.590;2023-03-07T11:47:17;9.70;77.10
7494;DHT22;3788;49.902;8.590;2023-03-07T11:50:04;9.70;77.20
7494;DHT22;3788;49.902;8.590;2023-03-07T11:52:45;9.80;76.80
7494;DHT22;3788;49.902;8.590;2023-03-07T11:55:25;9.80;76.30
7494;DHT22;3788;49.902;8.590;2023-03-07T11:58:12;9.90;76.20
7494;DHT22;3788;49.902;8.590;2023-03-07T12:00:51;9.80;76.00
7494;DHT22;3788;49.902;8.590;2023-03-07T12:03:38;9.70;75.20
7494;DHT22;3788;49.902;8.590;2023-03-07T12:06:21;9.60;75.10
7494;DHT22;3788;49.902;8.590;2023-03-07T12:09:00;9.40;75.80
7494;DHT22;3788;49.902;8.590;2023-03-07T12:11:48;9.40;76.20
7494;DHT22;3788;49.902;8.590;2023-03-07T12:14:21;9.30;76.80
7494;DHT22;3788;49.902;8.590;2023-03-07T12:17:02;9.10;77.40
7494;DHT22;3788;49.902;8.590;2023-03-07T12:19:54;9.10;77.10
7494;DHT22;3788;49.902;8.590;2023-03-07T12:22:27;9.10;75.10
7494;DHT22;3788;49.902;8.590;2023-03-07T12:25:03;8.90;74.90
7494;DHT22;3788;49.902;8.590;2023-03-07T12:27:38;8.80;75.20
7494;DHT22;3788;49.902;8.590;2023-03-07T12:30:14;8.80;75.40
7494;DHT22;3788;49.902;8.590;2023-03-07T12:32:42;8.70;75.80
7494;DHT22;3788;49.902;8.590;2023-03-07T12:35:21;8.70;75.70
7494;DHT22;3788;49.902;8.590;2023-03-07T12:37:52;8.70;75.70
7494;DHT22;3788;49.902;8.590;2023-03-07T12:40:24;8.60;76.20
7494;DHT22;3788;49.902;8.590;2023-03-07T12:42:56;8.60;76.40
7494;DHT22;3788;49.902;8.590;2023-03-07T12:45:26;8.60;76.20
7494;DHT22;3788;49.902;8.590;2023-03-07T12:47:59;8.60;76.40
7494;DHT22;3788;49.902;8.590;2023-03-07T12:50:32;8.60;76.80
7494;DHT22;3788;49.902;8.590;2023-03-07T12:53:04;8.60;77.30
7494;DHT22;3788;49.902;8.590;2023-03-07T12:55:35;8.60;77.00
7494;DHT22;3788;49.902;8.590;2023-03-07T12:58:11;8.60;77.40
7494;DHT22;3788;49.902;8.590;2023-03-07T13:00:44;8.60;77.40
7494;DHT22;3788;49.902;8.590;2023-03-07T13:03:17;8.60;77.60
7494;DHT22;3788;49.902;8.590;2023-03-07T13:05:47;8.60;78.00
7494;DHT22;3788;49.902;8.590;2023-03-07T13:08:19;8.60;78.00
7494;DHT22;3788;49.902;8.590;2023-03-07T13:10:48;8.60;78.10
7494;DHT22;3788;49.902;8.590;2023-03-07T13:13:50;8.60;78.40
7494;DHT22;3788;49.902;8.590;2023-03-07T13:16:42;8.60;78.80
7494;DHT22;3788;49.902;8.590;2023-03-07T13:19:41;8.60;78.80
7494;DHT22;3788;49.902;8.590;2023-03-07T13:25:57;8.50;79.60
7494;DHT22;3788;49.902;8.590;2023-03-07T13:28:32;8.50;79.70
7494;DHT22;3788;49.902;8.590;2023-03-07T13:31:16;8.50;79.60
7494;DHT22;3788;49.902;8.590;2023-03-07T13:33:51;8.40;79.60
7494;DHT22;3788;49.902;8.590;2023-03-07T13:36:34;8.40;80.30
7494;DHT22;3788;49.902;8.590;2023-03-07T13:39:02;8.40;80.50
7494;DHT22;3788;49.902;8.590;2023-03-07T13:41:50;8.40;80.60
7494;DHT22;3788;49.902;8.590;2023-03-07T13:44:28;8.40;80.90
7494;DHT22;3788;49.902;8.590;2023-03-07T13:46:57;8.40;80.90
7494;DHT22;3788;49.902;8.590;2023-03-07T13:49:47;8.40;81.40
7494;DHT22;3788;49.902;8.590;2023-03-07T13:52:30;8.40;82.10
7494;DHT22;3788;49.902;8.590;2023-03-07T13:54:58;8.30;82.20
7494;DHT22;3788;49.902;8.590;2023-03-07T13:57:37;8.30;82.50
7494;DHT22;3788;49.902;8.590;2023-03-07T14:00:24;8.30;82.60
7494;DHT22;3788;49.902;8.590;2023-03-07T14:02:54;8.20;82.70
7494;DHT22;3788;49.902;8.590;2023-03-07T14:05:21;8.20;83.70
7494;DHT22;3788;49.902;8.590;2023-03-07T14:07:49;8.20;83.00
7494;DHT22;3788;49.902;8.590;2023-03-07T14:10:20;8.20;83.20
7494;DHT22;3788;49.902;8.590;2023-03-07T14:15:56;8.20;83.60
7494;DHT22;3788;49.902;8.590;2023-03-07T14:18:39;8.20;84.10
7494;DHT22;3788;49.902;8.590;2023-03-07T14:21:14;8.20;83.90
7494;DHT22;3788;49.902;8.590;2023-03-07T14:26:41;8.20;83.90
7494;DHT22;3788;49.902;8.590;2023-03-07T14:29:14;8.20;84.20
7494;DHT22;3788;49.902;8.590;2023-03-07T14:31:43;8.30;84.10
7494;DHT22;3788;49.902;8.590;2023-03-07T14:34:25;8.40;84.00
7494;DHT22;3788;49.902;8.590;2023-03-07T14:36:53;8.50;83.70
7494;DHT22;3788;49.902;8.590;2023-03-07T14:39:21;8.50;82.70
7494;DHT22;3788;49.902;8.590;2023-03-07T14:41:55;8.60;82.10
7494;DHT22;3788;49.902;8.590;2023-03-07T14:44:40;8.60;81.80
7494;DHT22;3788;49.902;8.590;2023-03-07T14:47:21;8.60;81.80
7494;DHT22;3788;49.902;8.590;2023-03-07T14:49:58;8.60;81.80
7494;DHT22;3788;49.902;8.590;2023-03-07T14:52:29;8.60;81.90
7494;DHT22;3788;49.902;8.590;2023-03-07T14:54:58;8.50;81.60
7494;DHT22;3788;49.902;8.590;2023-03-07T14:57:30;8.50;81.60
7494;DHT22;3788;49.902;8.590;2023-03-07T15:02:49;8.40;81.70
7494;DHT22;3788;49.902;8.590;2023-03-07T15:05:19;8.40;81.70
7494;DHT22;3788;49.902;8.590;2023-03-07T15:07:46;8.30;81.80
7494;DHT22;3788;49.902;8.590;2023-03-07T15:10:15;8.30;81.90
7494;DHT22;3788;49.902;8.590;2023-03-07T15:12:43;8.20;81.90
7494;DHT22;3788;49.902;8.590;2023-03-07T15:15:28;8.20;82.00
7494;DHT22;3788;49.902;8.590;2023-03-07T15:17:59;8.10;82.30
7494;DHT22;3788;49.902;8.590;2023-03-07T15:20:31;8.10;83.10
7494;DHT22;3788;49.902;8.590;2023-03-07T15:23:04;8.10;83.80
7494;DHT22;3788;49.902;8.590;2023-03-07T15:25:32;8.10;84.60
7494;DHT22;3788;49.902;8.590;2023-03-07T15:28:05;8.10;85.00
7494;DHT22;3788;49.902;8.590;2023-03-07T15:30:34;8.10;85.40
7494;DHT22;3788;49.902;8.590;2023-03-07T15:33:11;8.10;85.90
7494;DHT22;3788;49.902;8.590;2023-03-07T15:35:39;8.10;86.20
7494;DHT22;3788;49.902;8.590;2023-03-07T15:38:14;8.00;86.50
7494;DHT22;3788;49.902;8.590;2023-03-07T15:40:41;7.90;87.20
7494;DHT22;3788;49.902;8.590;2023-03-07T15:43:24;7.90;87.80
7494;DHT22;3788;49.902;8.590;2023-03-07T15:46:01;7.90;88.70
7494;DHT22;3788;49.902;8.590;2023-03-07T15:48:35;7.80;89.30
7494;DHT22;3788;49.902;8.590;2023-03-07T15:51:05;7.70;90.00
7494;DHT22;3788;49.902;8.590;2023-03-07T15:53:36;7.70;90.30
7494;DHT22;3788;49.902;8.590;2023-03-07T15:56:06;7.60;90.50
7494;DHT22;3788;49.902;8.590;2023-03-07T15:58:34;7.50;90.70
7494;DHT22;3788;49.902;8.590;2023-03-07T16:01:06;7.50;91.00
7494;DHT22;3788;49.902;8.590;2023-03-07T16:03:47;7.50;91.20
7494;DHT22;3788;49.902;8.590;2023-03-07T16:06:38;7.40;91.30
7494;DHT22;3788;49.902;8.590;2023-03-07T16:09:10;7.40;91.60
7494;DHT22;3788;49.902;8.590;2023-03-07T16:11:37;7.40;91.80
7494;DHT22;3788;49.902;8.590;2023-03-07T16:14:04;7.30;92.00
7494;DHT22;3788;49.902;8.590;2023-03-07T16:16:31;7.40;92.10
7494;DHT22;3788;49.902;8.590;2023-03-07T16:18:57;7.30;92.10
7494;DHT22;3788;49.902;8.590;2023-03-07T16:21:25;7.30;92.20
7494;DHT22;3788;49.902;8.590;2023-03-07T16:23:53;7.30;92.30
7494;DHT22;3788;49.902;8.590;2023-03-07T16:26:22;7.30;92.30
7494;DHT22;3788;49.902;8.590;2023-03-07T16:28:49;7.30;92.40
7494;DHT22;3788;49.902;8.590;2023-03-07T16:31:17;7.30;92.50
7494;DHT22;3788;49.902;8.590;2023-03-07T16:33:45;7.30;92.60
7494;DHT22;3788;49.902;8.590;2023-03-07T16:36:12;7.30;92.70
7494;DHT22;3788;49.902;8.590;2023-03-07T16:38:40;7.40;92.50
7494;DHT22;3788;49.902;8.590;2023-03-07T16:41:14;7.40;92.50
7494;DHT22;3788;49.902;8.590;2023-03-07T16:43:42;7.40;92.50
7494;DHT22;3788;49.902;8.590;2023-03-07T16:46:11;7.30;92.90
7494;DHT22;3788;49.902;8.590;2023-03-07T16:48:39;7.30;92.60
7494;DHT22;3788;49.902;8.590;2023-03-07T16:51:11;7.20;92.70
7494;DHT22;3788;49.902;8.590;2023-03-07T16:53:38;7.20;92.80